DLH1188 EDDF-LTAC
Flight info
| Callsign | DLH1188 |
|---|---|
| Flight time | 2h 43m |
| Altitude | 31000 |
| Route | SULUS7S/18 SULUS Z650 VEMUT/N0451F350 DCT BUDEX DCT PESAT DCT TEGRI DCT RIXEN UA17 YAVRU |
| Aircraft | A320/M-SDE3FGHIRWY/LB1 |
Departure
| Time | 2026-05-04 16:29 |
|---|---|
| Airport | Frankfurt Main Airport (EDDF) |
Arrival
| Time | 2026-05-04 19:13 |
|---|---|
| Airport | Esenboğa International Airport (LTAC) |
| Time | Latitude | Longitude | Altitude | Speed | Heading |
|---|---|---|---|---|---|
| 2026-05-04 16:08 | 50.04784 | 8.56772 | 358 ft | 0 kts | 118° |
| 2026-05-04 16:18 | 50.04785 | 8.56768 | 357 ft | 3 kts | 120° |
| 2026-05-04 16:18 | 50.04796 | 8.56746 | 364 ft | 4 kts | 121° |
| 2026-05-04 16:19 | 50.04787 | 8.56699 | 364 ft | 4 kts | 0° |
| 2026-05-04 16:19 | 50.04756 | 8.56654 | 358 ft | 4 kts | 45° |
| 2026-05-04 16:20 | 50.04736 | 8.56621 | 362 ft | 0 kts | 51° |
| 2026-05-04 16:22 | 50.04745 | 8.56627 | 365 ft | 2 kts | 10° |
| 2026-05-04 16:22 | 50.04650 | 8.56362 | 362 ft | 15 kts | 251° |
| 2026-05-04 16:23 | 50.04473 | 8.55930 | 357 ft | 18 kts | 197° |
| 2026-05-04 16:24 | 50.04230 | 8.55900 | 355 ft | 9 kts | 250° |
| 2026-05-04 16:25 | 50.04171 | 8.55652 | 355 ft | 15 kts | 250° |
| 2026-05-04 16:26 | 50.03975 | 8.54832 | 361 ft | 23 kts | 249° |
| 2026-05-04 16:26 | 50.03779 | 8.54130 | 367 ft | 22 kts | 248° |
| 2026-05-04 16:27 | 50.03665 | 8.53647 | 366 ft | 25 kts | 249° |
| 2026-05-04 16:28 | 50.03479 | 8.52896 | 372 ft | 22 kts | 249° |
| 2026-05-04 16:28 | 50.03277 | 8.52595 | 374 ft | 17 kts | 179° |
| 2026-05-04 16:29 | 49.99869 | 8.52587 | 1203 ft | 168 kts | 182° |
| 2026-05-04 16:30 | 49.96181 | 8.53938 | 2467 ft | 225 kts | 129° |
| 2026-05-04 16:31 | 49.94557 | 8.58374 | 3726 ft | 243 kts | 117° |
| 2026-05-04 16:31 | 49.93718 | 8.66652 | 5643 ft | 276 kts | 105° |
| 2026-05-04 16:32 | 49.90315 | 8.73354 | 8191 ft | 271 kts | 148° |
| 2026-05-04 16:33 | 49.87651 | 8.77611 | 9826 ft | 285 kts | 123° |
| 2026-05-04 16:33 | 49.85655 | 8.83166 | 10859 ft | 312 kts | 123° |
| 2026-05-04 16:34 | 49.83372 | 8.89426 | 11190 ft | 357 kts | 123° |
| 2026-05-04 16:34 | 49.82119 | 8.92855 | 11611 ft | 368 kts | 122° |
| 2026-05-04 16:35 | 49.78273 | 9.03448 | 13514 ft | 382 kts | 122° |
| 2026-05-04 16:35 | 49.75262 | 9.15032 | 15183 ft | 398 kts | 106° |
| 2026-05-04 16:36 | 49.74600 | 9.19223 | 15739 ft | 401 kts | 106° |
| 2026-05-04 16:36 | 49.73246 | 9.27689 | 16802 ft | 409 kts | 107° |
| 2026-05-04 16:37 | 49.71851 | 9.36232 | 17812 ft | 416 kts | 107° |
| 2026-05-04 16:37 | 49.71131 | 9.40606 | 18312 ft | 419 kts | 107° |
| 2026-05-04 16:37 | 49.69688 | 9.49368 | 19177 ft | 426 kts | 107° |
| 2026-05-04 16:38 | 49.68205 | 9.58314 | 20031 ft | 431 kts | 107° |
| 2026-05-04 16:39 | 49.67849 | 9.72342 | 21291 ft | 449 kts | 79° |
| 2026-05-04 16:39 | 49.69485 | 9.81666 | 22099 ft | 455 kts | 76° |
| 2026-05-04 16:40 | 49.71195 | 9.91132 | 22871 ft | 461 kts | 72° |
| 2026-05-04 16:40 | 49.74186 | 9.99983 | 23582 ft | 468 kts | 54° |
| 2026-05-04 16:41 | 49.78030 | 10.08211 | 24214 ft | 473 kts | 54° |
| 2026-05-04 16:41 | 49.83794 | 10.20708 | 25122 ft | 480 kts | 55° |
| 2026-05-04 16:42 | 49.89619 | 10.33462 | 25983 ft | 486 kts | 55° |
| 2026-05-04 16:43 | 49.93546 | 10.42058 | 26535 ft | 490 kts | 54° |
| 2026-05-04 16:43 | 49.97513 | 10.50758 | 27080 ft | 494 kts | 55° |
| 2026-05-04 16:43 | 49.99501 | 10.55135 | 27342 ft | 496 kts | 55° |
| 2026-05-04 16:44 | 50.05178 | 10.74223 | 28849 ft | 488 kts | 85° |
| 2026-05-04 16:45 | 50.04921 | 10.84619 | 29560 ft | 482 kts | 105° |
| 2026-05-04 16:46 | 50.01925 | 10.99428 | 30555 ft | 478 kts | 111° |
| 2026-05-04 16:46 | 49.98830 | 11.13909 | 30980 ft | 479 kts | 111° |
| 2026-05-04 16:47 | 49.85853 | 11.93979 | 30924 ft | 479 kts | 100° |
| 2026-05-04 16:48 | 49.77583 | 12.54001 | 30830 ft | 476 kts | 129° |
| 2026-05-04 16:48 | 49.70056 | 12.70758 | 30855 ft | 470 kts | 128° |
| 2026-05-04 16:49 | 49.55033 | 13.04116 | 30987 ft | 476 kts | 128° |
| 2026-05-04 16:49 | 49.39979 | 13.37105 | 30952 ft | 469 kts | 128° |
| 2026-05-04 16:50 | 49.09482 | 14.02692 | 33265 ft | 469 kts | 128° |
| 2026-05-04 16:51 | 48.94355 | 14.34595 | 35356 ft | 467 kts | 128° |
| 2026-05-04 16:51 | 48.87186 | 14.51130 | 36250 ft | 466 kts | 125° |
| 2026-05-04 16:51 | 48.72970 | 14.83785 | 36927 ft | 468 kts | 126° |
| 2026-05-04 16:52 | 48.66724 | 14.97957 | 36936 ft | 464 kts | 126° |
| 2026-05-04 16:53 | 48.48136 | 15.39696 | 36831 ft | 470 kts | 126° |
| 2026-05-04 16:53 | 48.26310 | 15.87875 | 36997 ft | 466 kts | 126° |
| 2026-05-04 16:54 | 48.18949 | 16.03963 | 36795 ft | 470 kts | 125° |
| 2026-05-04 16:55 | 47.74472 | 16.99049 | 37016 ft | 469 kts | 126° |
| 2026-05-04 16:56 | 47.44945 | 17.84187 | 36905 ft | 465 kts | 116° |
| 2026-05-04 16:57 | 47.39135 | 18.01151 | 37105 ft | 459 kts | 116° |
| 2026-05-04 16:57 | 47.27415 | 18.34990 | 36899 ft | 465 kts | 116° |
| 2026-05-04 16:58 | 47.03847 | 19.01777 | 36953 ft | 459 kts | 116° |
| 2026-05-04 16:59 | 46.91929 | 19.34907 | 37065 ft | 462 kts | 116° |
| 2026-05-04 17:00 | 46.67793 | 20.00792 | 36958 ft | 465 kts | 116° |
| 2026-05-04 17:00 | 46.50326 | 20.47479 | 37181 ft | 460 kts | 117° |
| 2026-05-04 17:01 | 46.47768 | 20.54241 | 37064 ft | 458 kts | 117° |
| 2026-05-04 17:02 | 46.41157 | 20.70096 | 37069 ft | 461 kts | 122° |
| 2026-05-04 17:03 | 46.35732 | 20.81568 | 37078 ft | 462 kts | 122° |
| 2026-05-04 17:03 | 46.30317 | 20.93086 | 37091 ft | 462 kts | 122° |
| 2026-05-04 17:04 | 46.23109 | 21.08476 | 37094 ft | 462 kts | 122° |
| 2026-05-04 17:05 | 46.15877 | 21.23784 | 37099 ft | 462 kts | 122° |
| 2026-05-04 17:06 | 46.10425 | 21.35273 | 37089 ft | 462 kts | 122° |
| 2026-05-04 17:07 | 46.05589 | 21.45423 | 37091 ft | 462 kts | 122° |
| 2026-05-04 17:07 | 46.01333 | 21.54322 | 37106 ft | 462 kts | 122° |
| 2026-05-04 17:08 | 45.95876 | 21.65720 | 37103 ft | 462 kts | 122° |
| 2026-05-04 17:09 | 45.92216 | 21.73322 | 37103 ft | 462 kts | 123° |
| 2026-05-04 17:09 | 45.88542 | 21.80926 | 37107 ft | 462 kts | 123° |
| 2026-05-04 17:10 | 45.79384 | 21.99803 | 37103 ft | 462 kts | 123° |
| 2026-05-04 17:11 | 45.75721 | 22.07316 | 37099 ft | 462 kts | 123° |
| 2026-05-04 17:12 | 45.70195 | 22.18632 | 37110 ft | 461 kts | 123° |
| 2026-05-04 17:13 | 45.60989 | 22.37379 | 37107 ft | 461 kts | 123° |
| 2026-05-04 17:14 | 45.53603 | 22.52310 | 37119 ft | 461 kts | 123° |
| 2026-05-04 17:15 | 45.48057 | 22.63489 | 37115 ft | 461 kts | 123° |
| 2026-05-04 17:16 | 45.40619 | 22.78407 | 37116 ft | 461 kts | 123° |
| 2026-05-04 17:17 | 45.33172 | 22.93235 | 37103 ft | 461 kts | 123° |
| 2026-05-04 17:18 | 45.25712 | 23.08040 | 37098 ft | 461 kts | 124° |
| 2026-05-04 17:19 | 45.18237 | 23.22801 | 37081 ft | 461 kts | 123° |
| 2026-05-04 17:20 | 45.10738 | 23.37513 | 37076 ft | 461 kts | 124° |
| 2026-05-04 17:20 | 45.05093 | 23.48548 | 37070 ft | 461 kts | 124° |
| 2026-05-04 17:21 | 44.97562 | 23.63196 | 37073 ft | 460 kts | 124° |
| 2026-05-04 17:22 | 44.93809 | 23.70479 | 37066 ft | 460 kts | 124° |
| 2026-05-04 17:23 | 44.86255 | 23.85065 | 37063 ft | 460 kts | 124° |
| 2026-05-04 17:24 | 44.80600 | 23.95937 | 37057 ft | 460 kts | 125° |
| 2026-05-04 17:25 | 44.73010 | 24.10477 | 37058 ft | 460 kts | 125° |
| 2026-05-04 17:26 | 44.65411 | 24.24960 | 37067 ft | 461 kts | 126° |
| 2026-05-04 17:27 | 44.55865 | 24.43001 | 37061 ft | 461 kts | 126° |
| 2026-05-04 17:28 | 44.48220 | 24.57421 | 37059 ft | 461 kts | 126° |
| 2026-05-04 17:29 | 44.36699 | 24.78974 | 37061 ft | 461 kts | 126° |
| 2026-05-04 17:31 | 44.27081 | 24.96855 | 37056 ft | 461 kts | 126° |
| 2026-05-04 17:32 | 44.17399 | 25.14726 | 37063 ft | 461 kts | 127° |
| 2026-05-04 17:33 | 44.09661 | 25.28940 | 37066 ft | 461 kts | 126° |
| 2026-05-04 17:34 | 44.01887 | 25.43161 | 37061 ft | 461 kts | 127° |
| 2026-05-04 17:35 | 43.92172 | 25.60833 | 37059 ft | 461 kts | 127° |
| 2026-05-04 17:36 | 43.88341 | 25.67761 | 37021 ft | 448 kts | 127° |
| 2026-05-04 17:36 | 43.84500 | 25.74686 | 37050 ft | 457 kts | 127° |
| 2026-05-04 17:37 | 43.80592 | 25.81715 | 37046 ft | 460 kts | 127° |
| 2026-05-04 17:37 | 43.76692 | 25.88725 | 37049 ft | 459 kts | 127° |
| 2026-05-04 17:38 | 43.72793 | 25.95728 | 37053 ft | 459 kts | 127° |
| 2026-05-04 17:38 | 43.68889 | 26.02723 | 37052 ft | 460 kts | 127° |
| 2026-05-04 17:39 | 43.63007 | 26.13192 | 37050 ft | 460 kts | 127° |
| 2026-05-04 17:39 | 43.59110 | 26.20118 | 37056 ft | 460 kts | 127° |
| 2026-05-04 17:40 | 43.55184 | 26.27091 | 37063 ft | 460 kts | 127° |
| 2026-05-04 17:40 | 43.51255 | 26.34051 | 37080 ft | 460 kts | 127° |
| 2026-05-04 17:41 | 43.47321 | 26.41001 | 37077 ft | 460 kts | 127° |
| 2026-05-04 17:41 | 43.43373 | 26.47920 | 37061 ft | 459 kts | 129° |
| 2026-05-04 17:42 | 43.39425 | 26.54802 | 37026 ft | 457 kts | 127° |
| 2026-05-04 17:42 | 43.35516 | 26.61709 | 37042 ft | 458 kts | 126° |
| 2026-05-04 17:43 | 43.31610 | 26.68576 | 37049 ft | 458 kts | 127° |
| 2026-05-04 17:43 | 43.27672 | 26.75452 | 37054 ft | 458 kts | 127° |
| 2026-05-04 17:44 | 43.23716 | 26.82325 | 37061 ft | 458 kts | 127° |
| 2026-05-04 17:44 | 43.19761 | 26.89188 | 37071 ft | 459 kts | 126° |
| 2026-05-04 17:45 | 43.15796 | 26.96061 | 37069 ft | 459 kts | 126° |
| 2026-05-04 17:45 | 43.11843 | 27.02889 | 37067 ft | 459 kts | 127° |
| 2026-05-04 17:46 | 43.07860 | 27.09763 | 37080 ft | 459 kts | 126° |
| 2026-05-04 17:46 | 43.04556 | 27.15460 | 37074 ft | 459 kts | 126° |
| 2026-05-04 17:47 | 42.99923 | 27.23410 | 37067 ft | 459 kts | 127° |
| 2026-05-04 17:47 | 42.96595 | 27.29107 | 37066 ft | 460 kts | 127° |
| 2026-05-04 17:48 | 42.92596 | 27.35944 | 37077 ft | 460 kts | 126° |
| 2026-05-04 17:48 | 42.88589 | 27.42769 | 37075 ft | 460 kts | 126° |
| 2026-05-04 17:49 | 42.84606 | 27.49546 | 37081 ft | 460 kts | 126° |
| 2026-05-04 17:49 | 42.80589 | 27.56378 | 37085 ft | 460 kts | 126° |
| 2026-05-04 17:50 | 42.76592 | 27.63143 | 37097 ft | 460 kts | 126° |
| 2026-05-04 17:50 | 42.72569 | 27.69932 | 37093 ft | 461 kts | 126° |
| 2026-05-04 17:51 | 42.68545 | 27.76713 | 37090 ft | 461 kts | 126° |
| 2026-05-04 17:51 | 42.64511 | 27.83499 | 37100 ft | 461 kts | 126° |
| 2026-05-04 17:52 | 42.60475 | 27.90272 | 37090 ft | 461 kts | 126° |
| 2026-05-04 17:52 | 42.56466 | 27.96992 | 37081 ft | 461 kts | 126° |
| 2026-05-04 17:53 | 42.52422 | 28.03758 | 37077 ft | 461 kts | 126° |
| 2026-05-04 17:53 | 42.48373 | 28.10513 | 37093 ft | 461 kts | 126° |
| 2026-05-04 17:54 | 42.44344 | 28.17214 | 37082 ft | 460 kts | 126° |
| 2026-05-04 17:54 | 42.40284 | 28.23947 | 37072 ft | 460 kts | 126° |
| 2026-05-04 17:55 | 42.36232 | 28.30647 | 37076 ft | 460 kts | 126° |
| 2026-05-04 17:55 | 42.32205 | 28.37303 | 37084 ft | 459 kts | 126° |
| 2026-05-04 17:56 | 42.28141 | 28.43991 | 37074 ft | 459 kts | 126° |
| 2026-05-04 17:56 | 42.24093 | 28.50636 | 37062 ft | 460 kts | 126° |
| 2026-05-04 17:57 | 42.20031 | 28.57307 | 37059 ft | 460 kts | 126° |
| 2026-05-04 17:57 | 42.15975 | 28.63957 | 37056 ft | 460 kts | 126° |
| 2026-05-04 17:58 | 42.11895 | 28.70642 | 37058 ft | 460 kts | 126° |
| 2026-05-04 17:58 | 42.07890 | 28.77359 | 37067 ft | 458 kts | 121° |
| 2026-05-04 17:59 | 42.04481 | 28.84586 | 37073 ft | 457 kts | 118° |
| 2026-05-04 18:00 | 41.99407 | 28.95409 | 37066 ft | 457 kts | 119° |
| 2026-05-04 18:00 | 41.96016 | 29.02616 | 37063 ft | 457 kts | 119° |
| 2026-05-04 18:01 | 41.92607 | 29.09841 | 37067 ft | 457 kts | 118° |
| 2026-05-04 18:01 | 41.89188 | 29.17064 | 37053 ft | 457 kts | 119° |
| 2026-05-04 18:02 | 41.84054 | 29.27868 | 37038 ft | 457 kts | 119° |
| 2026-05-04 18:02 | 41.80638 | 29.35054 | 37043 ft | 458 kts | 118° |
| 2026-05-04 18:03 | 41.77203 | 29.42251 | 37037 ft | 458 kts | 119° |
| 2026-05-04 18:03 | 41.73776 | 29.49406 | 37035 ft | 458 kts | 119° |
| 2026-05-04 18:04 | 41.70342 | 29.56574 | 37050 ft | 458 kts | 118° |
| 2026-05-04 18:05 | 41.65160 | 29.67350 | 37021 ft | 458 kts | 118° |
| 2026-05-04 18:05 | 41.61698 | 29.74531 | 37012 ft | 458 kts | 118° |
| 2026-05-04 18:06 | 41.56520 | 29.85234 | 37013 ft | 459 kts | 119° |
| 2026-05-04 18:06 | 41.53039 | 29.92411 | 37009 ft | 459 kts | 119° |
| 2026-05-04 18:07 | 41.49575 | 29.99538 | 37013 ft | 460 kts | 119° |
| 2026-05-04 18:07 | 41.46073 | 30.06718 | 37039 ft | 460 kts | 119° |
| 2026-05-04 18:08 | 41.42600 | 30.13838 | 37017 ft | 460 kts | 119° |
| 2026-05-04 18:08 | 41.39099 | 30.20998 | 37014 ft | 461 kts | 119° |
| 2026-05-04 18:09 | 41.32075 | 30.35272 | 37028 ft | 461 kts | 119° |
| 2026-05-04 18:10 | 41.28558 | 30.42414 | 37009 ft | 461 kts | 119° |
| 2026-05-04 18:10 | 41.25056 | 30.49521 | 37010 ft | 461 kts | 119° |
| 2026-05-04 18:11 | 41.21518 | 30.56666 | 37020 ft | 462 kts | 120° |
| 2026-05-04 18:11 | 41.17993 | 30.63750 | 37008 ft | 462 kts | 120° |
| 2026-05-04 18:12 | 41.14436 | 30.70882 | 37010 ft | 462 kts | 120° |
| 2026-05-04 18:12 | 41.10897 | 30.77974 | 37010 ft | 462 kts | 120° |
| 2026-05-04 18:13 | 41.07358 | 30.85068 | 37013 ft | 462 kts | 120° |
| 2026-05-04 18:14 | 41.02004 | 30.95741 | 37008 ft | 463 kts | 120° |
| 2026-05-04 18:14 | 40.98457 | 31.02808 | 37004 ft | 462 kts | 120° |
| 2026-05-04 18:15 | 40.91419 | 31.17066 | 37001 ft | 463 kts | 119° |
| 2026-05-04 18:16 | 40.87890 | 31.24200 | 36998 ft | 463 kts | 120° |
| 2026-05-04 18:16 | 40.84363 | 31.31272 | 37011 ft | 463 kts | 120° |
| 2026-05-04 18:17 | 40.79018 | 31.41944 | 36995 ft | 464 kts | 120° |
| 2026-05-04 18:18 | 40.73701 | 31.52564 | 37007 ft | 464 kts | 120° |
| 2026-05-04 18:18 | 40.70144 | 31.59670 | 36990 ft | 465 kts | 120° |
| 2026-05-04 18:19 | 40.64782 | 31.70304 | 36979 ft | 465 kts | 120° |
| 2026-05-04 18:19 | 40.61174 | 31.77437 | 36991 ft | 466 kts | 120° |
| 2026-05-04 18:20 | 40.57577 | 31.84537 | 36968 ft | 466 kts | 120° |
| 2026-05-04 18:20 | 40.53967 | 31.91579 | 36965 ft | 467 kts | 121° |
| 2026-05-04 18:21 | 40.50311 | 31.98616 | 36970 ft | 467 kts | 121° |
| 2026-05-04 18:21 | 40.46633 | 32.05691 | 36950 ft | 468 kts | 121° |
| 2026-05-04 18:22 | 40.42965 | 32.12761 | 36935 ft | 467 kts | 120° |
| 2026-05-04 18:22 | 40.40207 | 32.20352 | 36935 ft | 462 kts | 108° |
| 2026-05-04 18:23 | 40.37842 | 32.28218 | 36935 ft | 463 kts | 109° |
| 2026-05-04 18:23 | 40.35648 | 32.36103 | 36922 ft | 460 kts | 101° |
| 2026-05-04 18:24 | 40.34861 | 32.40177 | 36787 ft | 461 kts | 101° |
| 2026-05-04 18:24 | 40.34069 | 32.44271 | 35849 ft | 467 kts | 101° |
| 2026-05-04 18:24 | 40.33265 | 32.48410 | 35010 ft | 470 kts | 101° |
| 2026-05-04 18:24 | 40.32459 | 32.52544 | 34507 ft | 465 kts | 101° |
| 2026-05-04 18:25 | 40.31656 | 32.56622 | 34021 ft | 460 kts | 101° |
| 2026-05-04 18:25 | 40.30857 | 32.60660 | 33340 ft | 457 kts | 101° |
| 2026-05-04 18:25 | 40.30005 | 32.64664 | 32606 ft | 458 kts | 107° |
| 2026-05-04 18:25 | 40.28408 | 32.68289 | 31915 ft | 465 kts | 127° |
| 2026-05-04 18:26 | 40.25958 | 32.71053 | 30877 ft | 470 kts | 145° |
| 2026-05-04 18:26 | 40.22896 | 32.72679 | 29287 ft | 484 kts | 165° |
| 2026-05-04 18:26 | 40.19503 | 32.72908 | 27496 ft | 496 kts | 185° |
| 2026-05-04 18:26 | 40.16200 | 32.71649 | 25903 ft | 496 kts | 206° |
| 2026-05-04 18:27 | 40.13233 | 32.69421 | 24459 ft | 487 kts | 210° |
| 2026-05-04 18:27 | 40.10181 | 32.67717 | 23348 ft | 470 kts | 192° |
| 2026-05-04 18:27 | 40.06986 | 32.67369 | 22022 ft | 454 kts | 174° |
| 2026-05-04 18:27 | 40.03956 | 32.68217 | 20761 ft | 440 kts | 158° |
| 2026-05-04 18:28 | 40.01228 | 32.69898 | 19464 ft | 430 kts | 151° |
| 2026-05-04 18:28 | 39.98517 | 32.71468 | 18261 ft | 423 kts | 159° |
| 2026-05-04 18:28 | 39.95690 | 32.72370 | 17580 ft | 412 kts | 170° |
| 2026-05-04 18:28 | 39.92922 | 32.72660 | 17432 ft | 397 kts | 177° |
| 2026-05-04 18:29 | 39.90217 | 32.72726 | 17294 ft | 382 kts | 177° |
| 2026-05-04 18:29 | 39.87611 | 32.72794 | 17165 ft | 368 kts | 177° |
| 2026-05-04 18:29 | 39.85087 | 32.72858 | 17019 ft | 356 kts | 177° |
| 2026-05-04 18:29 | 39.82649 | 32.72808 | 16887 ft | 345 kts | 184° |
| 2026-05-04 18:30 | 39.78223 | 32.70930 | 16619 ft | 328 kts | 210° |
| 2026-05-04 18:30 | 39.76368 | 32.69272 | 16494 ft | 319 kts | 214° |
| 2026-05-04 18:30 | 39.74396 | 32.68081 | 16360 ft | 307 kts | 189° |
| 2026-05-04 18:31 | 39.72323 | 32.68064 | 16199 ft | 294 kts | 164° |
| 2026-05-04 18:31 | 39.70514 | 32.69112 | 15951 ft | 286 kts | 140° |
| 2026-05-04 18:31 | 39.69176 | 32.70978 | 15646 ft | 281 kts | 123° |
| 2026-05-04 18:31 | 39.68169 | 32.73095 | 15507 ft | 270 kts | 107° |
| 2026-05-04 18:32 | 39.67932 | 32.75447 | 15309 ft | 262 kts | 80° |
| 2026-05-04 18:32 | 39.68259 | 32.76943 | 15146 ft | 259 kts | 63° |
| 2026-05-04 18:32 | 39.69378 | 32.78745 | 14839 ft | 259 kts | 38° |
| 2026-05-04 18:32 | 39.71314 | 32.80575 | 14430 ft | 260 kts | 37° |
| 2026-05-04 18:33 | 39.72786 | 32.81950 | 14169 ft | 259 kts | 37° |
| 2026-05-04 18:33 | 39.73766 | 32.82832 | 14035 ft | 257 kts | 31° |
| 2026-05-04 18:33 | 39.75418 | 32.83587 | 13907 ft | 250 kts | 8° |
| 2026-05-04 18:33 | 39.76754 | 32.83729 | 13647 ft | 245 kts | 6° |
| 2026-05-04 19:06 | 39.77218 | 32.83762 | 13514 ft | 244 kts | 5° |
| 2026-05-04 19:06 | 39.78915 | 32.83884 | 12959 ft | 244 kts | 7° |
| 2026-05-04 19:06 | 39.80599 | 32.84044 | 12289 ft | 243 kts | 7° |
| 2026-05-04 19:06 | 39.82298 | 32.84214 | 11587 ft | 248 kts | 7° |
| 2026-05-04 19:07 | 39.84040 | 32.84386 | 10901 ft | 254 kts | 6° |
| 2026-05-04 19:07 | 39.85823 | 32.84559 | 10278 ft | 261 kts | 6° |
| 2026-05-04 19:07 | 39.87626 | 32.84730 | 10017 ft | 256 kts | 6° |
| 2026-05-04 19:07 | 39.89381 | 32.84895 | 9537 ft | 252 kts | 5° |
| 2026-05-04 19:08 | 39.91126 | 32.85055 | 8968 ft | 250 kts | 5° |
| 2026-05-04 19:08 | 39.92851 | 32.85211 | 8425 ft | 247 kts | 5° |
| 2026-05-04 19:08 | 39.94556 | 32.85363 | 7882 ft | 242 kts | 4° |
| 2026-05-04 19:08 | 39.96200 | 32.85512 | 7235 ft | 232 kts | 4° |
| 2026-05-04 19:09 | 39.97773 | 32.85750 | 6644 ft | 226 kts | 15° |
| 2026-05-04 19:09 | 39.99122 | 32.86651 | 6250 ft | 211 kts | 34° |
| 2026-05-04 19:09 | 40.00256 | 32.87733 | 5935 ft | 193 kts | 33° |
| 2026-05-04 19:09 | 40.01301 | 32.88722 | 5671 ft | 179 kts | 33° |
| 2026-05-04 19:10 | 40.02265 | 32.89639 | 5399 ft | 167 kts | 34° |
| 2026-05-04 19:10 | 40.03193 | 32.90517 | 5099 ft | 162 kts | 35° |
| 2026-05-04 19:10 | 40.04067 | 32.91405 | 4918 ft | 156 kts | 37° |
| 2026-05-04 19:10 | 40.04923 | 32.92212 | 4753 ft | 147 kts | 32° |
| 2026-05-04 19:11 | 40.05764 | 32.92957 | 4669 ft | 145 kts | 33° |
| 2026-05-04 19:11 | 40.06575 | 32.93753 | 4421 ft | 145 kts | 34° |
| 2026-05-04 19:11 | 40.07386 | 32.94507 | 4123 ft | 145 kts | 34° |
| 2026-05-04 19:11 | 40.08215 | 32.95266 | 3858 ft | 144 kts | 34° |
| 2026-05-04 19:12 | 40.09032 | 32.96046 | 3736 ft | 147 kts | 37° |
| 2026-05-04 19:12 | 40.10695 | 32.97640 | 3384 ft | 148 kts | 36° |
| 2026-05-04 19:12 | 40.11520 | 32.98430 | 3172 ft | 149 kts | 37° |
| 2026-05-04 19:13 | 40.12318 | 32.99202 | 3109 ft | 124 kts | 36° |
| 2026-05-04 19:13 | 40.12876 | 32.99715 | 3124 ft | 73 kts | 36° |
| 2026-05-04 19:13 | 40.13169 | 32.99996 | 3132 ft | 43 kts | 36° |
| 2026-05-04 19:13 | 40.13360 | 33.00186 | 3139 ft | 26 kts | 56° |
| 2026-05-04 19:14 | 40.13282 | 33.00348 | 3139 ft | 25 kts | 167° |
| 2026-05-04 19:14 | 40.13126 | 33.00260 | 3135 ft | 26 kts | 213° |
| 2026-05-04 19:14 | 40.12970 | 33.00114 | 3131 ft | 29 kts | 216° |
| 2026-05-04 19:14 | 40.12804 | 32.99953 | 3125 ft | 30 kts | 217° |
| 2026-05-04 19:15 | 40.12632 | 32.99792 | 3122 ft | 31 kts | 216° |
| 2026-05-04 19:15 | 40.12454 | 32.99620 | 3116 ft | 32 kts | 217° |
| 2026-05-04 19:15 | 40.12271 | 32.99442 | 3111 ft | 33 kts | 215° |
| 2026-05-04 19:15 | 40.12080 | 32.99267 | 3106 ft | 34 kts | 215° |
| 2026-05-04 19:16 | 40.11890 | 32.99084 | 3101 ft | 33 kts | 217° |
| 2026-05-04 19:16 | 40.11802 | 32.99049 | 3099 ft | 4 kts | 114° |
| 2026-05-04 19:16 | 40.11789 | 32.99075 | 3102 ft | 2 kts | 125° |
| 2026-05-04 19:16 | 40.11774 | 32.99098 | 3099 ft | 5 kts | 140° |
| 2026-05-04 19:17 | 40.11757 | 32.99112 | 3099 ft | 4 kts | 148° |